Time;durP1;ratioP1;P1;durP2;ratioP2;P2;SDS_P1;SDS_P2;PMS_P1;PMS_P2;Temp;Humidity;BMP_temperature;BMP_pressure;BME280_temperature;BME280_humidity;BME280_pressure;Samples;Min_cycle;Max_cycle;Signal;HPM_P1;HPM_P2
2023/06/28 00:01:05;;;;;;;;;;;;;;;30.46;29.62;94460.88;5066475;28;6991;-62
2023/06/28 00:04:01;;;;;;;;;;;;;;;30.45;30.18;94453.81;5028521;28;7268;-62
2023/06/28 00:06:29;;;;;;;;;;;;;;;30.45;29.13;94455.84;4974863;28;7215;-63
2023/06/28 00:08:55;;;;;;;;;;;;;;;30.46;29.31;94449.00;4969209;28;9479;-62
2023/06/28 00:11:31;;;;;;;;;;;;;;;30.44;29.27;94446.78;4971516;28;7065;-63
2023/06/28 00:13:58;;;;;;;;;;;;;;;30.45;29.39;94450.28;4956305;28;7256;-62
2023/06/28 00:16:52;;;;;;;;;;;;;;;30.44;29.59;94449.56;4957259;28;6986;-62
2023/06/28 00:19:36;;;;;;;;;;;;;;;30.42;30.00;94446.59;4951793;28;7009;-63
2023/06/28 00:22:46;;;;;;;;;;;;;;;30.42;29.71;94448.63;4973590;28;9096;-62
2023/06/28 00:25:26;;;;;;;;;;;;;;;30.41;29.65;94438.78;4972052;28;7115;-62
2023/06/28 00:28:01;;;;;;;;;;;;;;;30.40;29.88;94440.09;4957765;28;9162;-62
2023/06/28 00:30:38;;;;;;;;;;;;;;;30.39;29.18;94441.34;4956350;28;7131;-62
2023/06/28 00:33:20;;;;;;;;;;;;;;;30.38;30.04;94446.16;4971449;28;7271;-62
2023/06/28 00:36:23;;;;;;;;;;;;;;;30.38;29.27;94446.16;4956396;28;6989;-62
2023/06/28 00:39:05;;;;;;;;;;;;;;;30.35;29.31;94446.50;4970914;28;7041;-62
2023/06/28 00:41:49;;;;;;;;;;;;;;;30.36;29.74;94440.41;4955632;28;7038;-62
2023/06/28 00:44:52;;;;;;;;;;;;;;;30.34;29.10;94439.47;5049523;28;7334;-62
2023/06/28 00:47:30;;;;;;;;;;;;;;;30.34;30.16;94445.75;4979043;28;8803;-63
2023/06/28 00:50:09;;;;;;;;;;;;;;;30.33;30.48;94449.84;4980026;28;7176;-62
2023/06/28 00:52:44;;;;;;;;;;;;;;;30.34;29.44;94450.59;4955534;28;7261;-62
2023/06/28 00:55:27;;;;;;;;;;;;;;;30.31;29.88;94449.63;4967591;28;8765;-63
2023/06/28 00:58:12;;;;;;;;;;;;;;;30.33;29.67;94449.84;4969270;28;8774;-62
2023/06/28 01:00:39;;;;;;;;;;;;;;;30.31;29.36;94449.63;4948771;28;7432;-62
2023/06/28 01:03:06;;;;;;;;;;;;;;;30.30;30.10;94450.88;4961115;28;7495;-63
2023/06/28 01:05:33;;;;;;;;;;;;;;;30.32;29.83;94447.59;4974180;28;7490;-62
2023/06/28 01:08:02;;;;;;;;;;;;;;;30.32;30.01;94453.16;4948705;28;7218;-62
2023/06/28 01:10:46;;;;;;;;;;;;;;;30.32;29.80;94455.94;4966830;28;9071;-62
2023/06/28 01:13:22;;;;;;;;;;;;;;;30.28;29.24;94445.13;4970993;28;9284;-62
2023/06/28 01:16:07;;;;;;;;;;;;;;;30.32;29.19;94450.38;4954057;28;9104;-62
2023/06/28 01:18:52;;;;;;;;;;;;;;;30.31;29.66;94440.56;4948559;28;9041;-63
2023/06/28 01:21:32;;;;;;;;;;;;;;;30.29;29.85;94441.06;5007601;28;7182;-62
2023/06/28 01:24:04;;;;;;;;;;;;;;;30.30;29.96;94439.78;5039789;28;7003;-62
2023/06/28 01:26:31;;;;;;;;;;;;;;;30.25;29.79;94437.91;5023555;28;9219;-62
2023/06/28 01:28:57;;;;;;;;;;;;;;;30.28;29.63;94442.34;5060728;28;7239;-63
2023/06/28 01:31:23;;;;;;;;;;;;;;;30.26;29.52;94439.38;5046929;28;7257;-63
2023/06/28 01:33:49;;;;;;;;;;;;;;;30.26;29.73;94439.38;5021361;28;9091;-62
2023/06/28 01:36:16;;;;;;;;;;;;;;;30.28;29.82;94447.16;5032246;28;7263;-62
2023/06/28 01:38:47;;;;;;;;;;;;;;;30.27;29.85;94449.19;5040960;28;7399;-62
2023/06/28 01:41:23;;;;;;;;;;;;;;;30.26;30.11;94450.47;5027257;28;7161;-62
2023/06/28 01:44:09;;;;;;;;;;;;;;;30.26;29.57;94444.16;5065965;28;7351;-62
2023/06/28 01:46:47;;;;;;;;;;;;;;;30.22;29.85;94441.75;5051253;28;7083;-62
2023/06/28 01:49:30;;;;;;;;;;;;;;;30.20;29.63;94436.00;5049997;28;7295;-62
2023/06/28 01:51:56;;;;;;;;;;;;;;;30.25;30.20;94437.91;5028752;28;9045;-63
2023/06/28 01:54:23;;;;;;;;;;;;;;;30.25;29.37;94437.91;5047352;28;7222;-63
2023/06/28 01:56:56;;;;;;;;;;;;;;;30.25;30.57;94426.78;5069907;28;7278;-62
2023/06/28 01:59:27;;;;;;;;;;;;;;;30.22;30.31;94421.56;5028571;28;9055;-62
2023/06/28 02:01:59;;;;;;;;;;;;;;;30.23;29.44;94425.84;5033997;28;7002;-62
2023/06/28 02:04:26;;;;;;;;;;;;;;;30.22;30.04;94427.88;5028212;28;7239;-62
2023/06/28 02:06:56;;;;;;;;;;;;;;;30.22;30.11;94427.88;5050515;28;7116;-62
2023/06/28 02:09:22;;;;;;;;;;;;;;;30.21;29.32;94443.00;5024662;28;9078;-62
2023/06/28 02:11:57;;;;;;;;;;;;;;;30.19;29.57;94437.25;5053655;28;7326;-62
2023/06/28 02:14:31;;;;;;;;;;;;;;;30.21;30.44;94437.47;5068425;28;7009;-62
2023/06/28 02:17:00;;;;;;;;;;;;;;;30.21;29.99;94439.50;5053218;28;7519;-63
2023/06/28 02:19:33;;;;;;;;;;;;;;;30.19;29.97;94433.75;5053999;28;7826;-63
2023/06/28 02:22:07;;;;;;;;;;;;;;;30.18;29.55;94433.00;5054272;28;7085;-63
2023/06/28 02:24:34;;;;;;;;;;;;;;;30.17;30.53;94425.22;5030539;28;7185;-63
2023/06/28 02:27:01;;;;;;;;;;;;;;;30.18;30.28;94423.94;5051064;28;7100;-63
2023/06/28 02:29:36;;;;;;;;;;;;;;;30.17;29.98;94420.41;5052235;28;7223;-63
2023/06/28 02:32:16;;;;;;;;;;;;;;;30.15;30.51;94417.44;5028545;28;7250;-63
2023/06/28 02:34:59;;;;;;;;;;;;;;;30.16;29.49;94418.94;5053912;28;9254;-63
2023/06/28 02:37:26;;;;;;;;;;;;;;;30.17;30.53;94425.22;5069787;28;8202;-63
2023/06/28 02:39:56;;;;;;;;;;;;;;;30.15;30.65;94416.69;5028232;28;8986;-63
2023/06/28 02:42:22;;;;;;;;;;;;;;;30.13;30.66;94416.47;5053207;28;7226;-63
2023/06/28 02:44:54;;;;;;;;;;;;;;;30.15;29.85;94419.47;5041966;28;7144;-63
2023/06/28 02:47:22;;;;;;;;;;;;;;;30.16;29.97;94415.41;5031511;28;8793;-63
2023/06/28 02:50:30;;;;;;;;;;;;;;;30.15;30.73;94411.88;5052136;28;7293;-63
2023/06/28 02:53:16;;;;;;;;;;;;;;;30.14;30.57;94409.66;5070411;28;9212;-63
2023/06/28 02:55:47;;;;;;;;;;;;;;;30.11;30.00;94403.16;5028312;28;7096;-63
2023/06/28 02:58:21;;;;;;;;;;;;;;;30.13;29.96;94408.91;5067305;28;7197;-63
2023/06/28 03:00:58;;;;;;;;;;;;;;;30.13;30.31;94406.13;5050511;28;7261;-63
2023/06/28 03:03:43;;;;;;;;;;;;;;;30.10;30.17;94398.88;5029570;28;8764;-63
2023/06/28 03:06:14;;;;;;;;;;;;;;;30.12;29.98;94404.66;5034929;28;8639;-63
2023/06/28 03:08:41;;;;;;;;;;;;;;;30.12;30.28;94401.13;5053340;28;7221;-63
2023/06/28 03:11:13;;;;;;;;;;;;;;;30.11;29.57;94397.63;5028108;28;8747;-63
2023/06/28 03:13:52;;;;;;;;;;;;;;;30.07;30.35;94402.00;5053190;28;7061;-63
2023/06/28 03:16:58;;;;;;;;;;;;;;;30.11;29.82;94403.16;5035450;28;7187;-63
2023/06/28 03:19:40;;;;;;;;;;;;;;;30.10;30.33;94404.44;4967647;28;7103;-63
2023/06/28 03:22:31;;;;;;;;;;;;;;;30.09;29.67;94402.97;4951858;28;7430;-63
2023/06/28 03:25:15;;;;;;;;;;;;;;;30.08;30.69;94407.00;4966650;28;7021;-63
2023/06/28 03:27:50;;;;;;;;;;;;;;;30.08;30.17;94398.69;4957637;28;7151;-63
2023/06/28 03:30:36;;;;;;;;;;;;;;;30.09;30.08;94400.19;4956768;28;9121;-63
2023/06/28 03:33:29;;;;;;;;;;;;;;;30.09;30.67;94397.41;4968105;28;7283;-63
2023/06/28 03:35:55;;;;;;;;;;;;;;;30.07;30.52;94394.44;4962928;28;9431;-63
2023/06/28 03:38:21;;;;;;;;;;;;;;;30.06;30.12;94392.22;4971933;28;7224;-63
2023/06/28 03:41:03;;;;;;;;;;;;;;;30.02;30.46;94386.97;4955834;28;8307;-63
2023/06/28 03:43:49;;;;;;;;;;;;;;;30.07;30.13;94377.03;4949587;28;9152;-63
2023/06/28 03:46:30;;;;;;;;;;;;;;;30.05;30.56;94383.13;4966333;28;8036;-63
2023/06/28 03:48:58;;;;;;;;;;;;;;;30.04;30.31;94384.41;4972029;28;7470;-63
2023/06/28 03:51:39;;;;;;;;;;;;;;;30.04;30.41;94391.97;4955266;28;7228;-63
2023/06/28 03:54:06;;;;;;;;;;;;;;;30.05;30.27;94401.81;5016895;28;7244;-63
2023/06/28 03:57:20;;;;;;;;;;;;;;;30.05;30.28;94397.00;5028978;28;7232;-63
2023/06/28 03:59:56;;;;;;;;;;;;;;;30.03;30.26;94399.59;4981564;28;7493;-63
2023/06/28 04:02:26;;;;;;;;;;;;;;;30.01;29.85;94387.53;4967362;28;7242;-63
2023/06/28 04:05:11;;;;;;;;;;;;;;;30.02;30.51;94386.97;4969232;28;7233;-62
2023/06/28 04:07:54;;;;;;;;;;;;;;;29.98;30.58;94386.56;4973080;28;7243;-62
2023/06/28 04:10:29;;;;;;;;;;;;;;;29.98;29.75;94383.06;4981420;28;7945;-62
2023/06/28 04:13:11;;;;;;;;;;;;;;;29.98;30.07;94377.50;4973691;28;9412;-62
2023/06/28 04:15:47;;;;;;;;;;;;;;;29.96;30.59;94374.53;4985062;28;9209;-62
2023/06/28 04:18:46;;;;;;;;;;;;;;;29.98;30.63;94377.50;4968197;28;7213;-63
2023/06/28 04:21:21;;;;;;;;;;;;;;;29.95;29.77;94379.31;4973355;28;7422;-62
2023/06/28 04:23:47;;;;;;;;;;;;;;;29.97;30.38;94379.53;4981994;28;9225;-62
2023/06/28 04:26:15;;;;;;;;;;;;;;;29.96;30.51;94380.84;4982348;28;8174;-63
2023/06/28 04:28:43;;;;;;;;;;;;;;;29.95;30.08;94359.91;4968378;28;9342;-63
2023/06/28 04:31:15;;;;;;;;;;;;;;;29.96;30.28;94371.75;4970978;28;6998;-63
2023/06/28 04:33:41;;;;;;;;;;;;;;;29.94;29.67;94372.31;4975523;28;7136;-63
2023/06/28 04:36:21;;;;;;;;;;;;;;;29.93;29.63;94368.03;4987992;28;9000;-63
2023/06/28 04:38:54;;;;;;;;;;;;;;;29.92;30.86;94377.66;5066669;28;7444;-63
2023/06/28 04:41:40;;;;;;;;;;;;;;;29.89;30.60;94367.63;5046308;28;7080;-63
2023/06/28 04:44:15;;;;;;;;;;;;;;;29.90;30.42;94374.69;5049928;28;9114;-63
2023/06/28 04:47:09;;;;;;;;;;;;;;;29.93;29.46;94372.84;5051154;28;9880;-63
2023/06/28 04:49:50;;;;;;;;;;;;;;;29.91;30.47;94375.41;5048607;28;7193;-63
2023/06/28 04:52:25;;;;;;;;;;;;;;;29.88;29.99;94370.94;5050622;28;7178;-63
2023/06/28 04:54:57;;;;;;;;;;;;;;;29.90;30.33;94374.69;5050842;28;7181;-63
2023/06/28 04:57:44;;;;;;;;;;;;;;;29.90;30.58;94379.47;5032569;28;7234;-63
2023/06/28 05:00:38;;;;;;;;;;;;;;;29.93;30.90;94389.50;5051460;28;8928;-63
2023/06/28 05:03:10;;;;;;;;;;;;;;;29.94;30.62;94388.94;5046234;28;7519;-62
2023/06/28 05:05:57;;;;;;;;;;;;;;;29.92;30.29;94385.97;5032682;28;9120;-62
2023/06/28 05:08:55;;;;;;;;;;;;;;;29.93;30.51;94393.00;5051494;28;9115;-63
2023/06/28 05:11:51;;;;;;;;;;;;;;;29.95;30.48;94387.66;4948783;28;7237;-63
2023/06/28 05:14:33;;;;;;;;;;;;;;;29.94;30.46;94374.31;4976994;28;7651;-63
2023/06/28 05:17:09;;;;;;;;;;;;;;;29.92;30.88;94377.66;4965751;28;7246;-63
2023/06/28 05:19:35;;;;;;;;;;;;;;;29.91;30.31;94370.59;4975444;28;7157;-63
2023/06/28 05:22:48;;;;;;;;;;;;;;;29.90;30.74;94376.69;4961841;28;7317;-63
2023/06/28 05:25:24;;;;;;;;;;;;;;;29.86;30.77;94377.03;4949723;28;9128;-62
2023/06/28 05:28:08;;;;;;;;;;;;;;;29.85;30.62;94377.56;4952682;28;7003;-63
2023/06/28 05:31:05;;;;;;;;;;;;;;;29.88;30.43;94371.69;4955901;28;7350;-63
2023/06/28 05:33:51;;;;;;;;;;;;;;;29.87;31.52;94372.97;4921190;29;7252;-63
2023/06/28 05:36:20;;;;;;;;;;;;;;;29.88;30.62;94363.38;4929409;28;7212;-63
2023/06/28 05:38:46;;;;;;;;;;;;;;;29.88;31.65;94370.94;4921235;29;9048;-63
2023/06/28 05:41:18;;;;;;;;;;;;;;;29.88;30.86;94368.19;4919924;29;7067;-63
2023/06/28 05:43:46;;;;;;;;;;;;;;;29.88;31.31;94371.69;4908194;29;7287;-63
2023/06/28 05:46:17;;;;;;;;;;;;;;;29.89;30.38;94378.72;4921030;28;7297;-63
2023/06/28 05:48:46;;;;;;;;;;;;;;;29.89;30.54;94377.97;4986441;28;8749;-63
2023/06/28 05:51:20;;;;;;;;;;;;;;;29.87;31.20;94381.28;4993766;28;9228;-64
2023/06/28 05:53:47;;;;;;;;;;;;;;;29.84;30.43;94382.34;5000184;28;7292;-63
2023/06/28 05:56:32;;;;;;;;;;;;;;;29.85;30.88;94383.84;5018146;28;9059;-63
2023/06/28 05:59:30;;;;;;;;;;;;;;;29.87;31.69;94380.53;4986984;28;7098;-63
2023/06/28 06:02:34;;;;;;;;;;;;;;;29.85;30.96;94375.53;4955934;28;7193;-63
2023/06/28 06:05:01;;;;;;;;;;;;;;;29.85;31.35;94381.09;4937690;28;7351;-63
2023/06/28 06:07:28;;;;;;;;;;;;;;;29.86;31.09;94385.38;4924117;28;9683;-63
2023/06/28 06:09:56;;;;;;;;;;;;;;;29.87;31.58;94386.84;4924974;28;9098;-63
2023/06/28 06:12:25;;;;;;;;;;;;;;;29.88;31.65;94393.13;4936247;28;8750;-63
2023/06/28 06:15:21;;;;;;;;;;;;;;;29.87;31.64;94409.03;4931695;28;7168;-63
2023/06/28 06:17:47;;;;;;;;;;;;;;;29.86;31.42;94401.25;4911754;29;7346;-63
2023/06/28 06:20:16;;;;;;;;;;;;;;;29.86;32.41;94401.25;4896472;29;7599;-61
2023/06/28 06:22:55;;;;;;;;;;;;;;;29.82;31.54;94401.56;4912764;29;9472;-62
2023/06/28 06:25:38;;;;;;;;;;;;;;;29.83;31.27;94408.63;4909913;29;7161;-62
2023/06/28 06:28:06;;;;;;;;;;;;;;;29.82;32.42;94412.66;4905806;29;7095;-62
2023/06/28 06:30:32;;;;;;;;;;;;;;;29.79;31.53;94417.28;4890399;29;8778;-62
2023/06/28 06:32:59;;;;;;;;;;;;;;;29.76;31.94;94421.13;4887157;29;9256;-61
2023/06/28 06:35:28;;;;;;;;;;;;;;;29.74;31.69;94415.38;4887979;29;7724;-61
2023/06/28 06:37:57;;;;;;;;;;;;;;;29.74;31.35;94420.91;4885067;28;7221;-61
2023/06/28 06:40:26;;;;;;;;;;;;;;;29.75;31.47;94427.22;4929755;28;9309;-62
2023/06/28 06:43:19;;;;;;;;;;;;;;;29.77;32.50;94427.41;4950919;28;8884;-62
2023/06/28 06:45:45;;;;;;;;;;;;;;;29.76;31.54;94423.88;4935993;28;7152;-62
2023/06/28 06:48:15;;;;;;;;;;;;;;;29.75;31.98;94421.66;4936775;28;7322;-62
2023/06/28 06:50:54;;;;;;;;;;;;;;;29.73;32.24;94426.97;4950566;28;9318;-62
2023/06/28 06:53:24;;;;;;;;;;;;;;;29.70;32.24;94412.16;4962813;28;7063;-62
2023/06/28 06:55:50;;;;;;;;;;;;;;;29.72;32.52;94425.47;5049181;28;8037;-62
2023/06/28 06:58:17;;;;;;;;;;;;;;;29.71;32.48;94424.72;5030229;28;9176;-62
2023/06/28 07:00:53;;;;;;;;;;;;;;;29.70;32.14;94416.94;5050676;28;9437;-61
2023/06/28 07:03:40;;;;;;;;;;;;;;;29.74;32.58;94420.16;5030034;28;9086;-61
2023/06/28 07:06:14;;;;;;;;;;;;;;;29.70;32.55;94414.16;5063495;28;7178;-61
2023/06/28 07:09:10;;;;;;;;;;;;;;;29.72;32.02;94426.22;5030269;28;9229;-62
2023/06/28 07:12:07;;;;;;;;;;;;;;;29.69;30.99;94426.53;5061983;28;9066;-63
2023/06/28 07:14:46;;;;;;;;;;;;;;;29.37;32.17;94423.19;4967081;28;7262;-61
2023/06/28 07:17:14;;;;;;;;;;;;;;;29.61;31.77;94415.38;4947547;28;8880;-61
2023/06/28 07:20:36;;;;;;;;;;;;;;;29.74;31.71;94422.94;4953212;28;8774;-63
2023/06/28 07:23:02;;;;;;;;;;;;;;;29.77;31.25;94416.31;4971033;28;7280;-62
2023/06/28 07:25:38;;;;;;;;;;;;;;;29.84;31.48;94428.78;4967337;28;7270;-62
2023/06/28 07:28:07;;;;;;;;;;;;;;;29.89;31.08;94417.53;4967441;28;7235;-62
2023/06/28 07:31:05;;;;;;;;;;;;;;;29.96;31.45;94422.44;4958272;28;7184;-62
2023/06/28 07:33:52;;;;;;;;;;;;;;;29.97;30.55;94435.00;4950170;28;7341;-62
2023/06/28 07:36:36;;;;;;;;;;;;;;;29.95;31.75;94434.78;4972566;28;7576;-62
2023/06/28 07:39:02;;;;;;;;;;;;;;;29.94;31.58;94435.34;4940339;28;7129;-63
2023/06/28 07:41:29;;;;;;;;;;;;;;;29.90;30.98;94435.69;4977674;28;8945;-63
2023/06/28 07:43:57;;;;;;;;;;;;;;;29.88;31.61;94431.97;4970694;28;7245;-63
2023/06/28 07:46:32;;;;;;;;;;;;;;;29.86;31.53;94428.97;4971809;28;7041;-63
2023/06/28 07:49:14;;;;;;;;;;;;;;;29.83;30.55;94425.25;4972030;28;7246;-63
2023/06/28 07:52:02;;;;;;;;;;;;;;;29.83;30.79;94439.13;5013708;28;8632;-62
2023/06/28 07:54:28;;;;;;;;;;;;;;;29.80;30.76;94431.88;5051373;28;9188;-62
2023/06/28 07:57:03;;;;;;;;;;;;;;;29.79;31.50;94433.16;5028506;28;7170;-62
2023/06/28 08:00:04;;;;;;;;;;;;;;;29.81;30.89;94441.69;5027747;28;8291;-62
2023/06/28 08:02:44;;;;;;;;;;;;;;;29.78;31.48;94440.72;4980892;28;7008;-62
2023/06/28 08:05:13;;;;;;;;;;;;;;;29.78;31.29;94440.72;4977067;28;7486;-63
2023/06/28 08:07:55;;;;;;;;;;;;;;;29.79;30.80;94447.03;4972920;28;7118;-62
2023/06/28 08:10:26;;;;;;;;;;;;;;;29.77;31.32;94444.03;4977246;28;7147;-62
2023/06/28 08:13:02;;;;;;;;;;;;;;;29.76;30.89;94437.00;4962338;28;7226;-62
2023/06/28 08:15:38;;;;;;;;;;;;;;;29.72;31.13;94440.09;4981040;28;9089;-62
2023/06/28 08:18:09;;;;;;;;;;;;;;;29.74;30.91;94440.31;4972658;28;7029;-62
2023/06/28 08:20:40;;;;;;;;;;;;;;;29.72;31.57;94436.56;4954963;28;7049;-62
2023/06/28 08:23:11;;;;;;;;;;;;;;;29.74;31.56;94437.53;4952782;28;9049;-62
2023/06/28 08:25:36;;;;;;;;;;;;;;;29.76;30.51;94439.78;4979502;28;9144;-62
2023/06/28 08:28:39;;;;;;;;;;;;;;;29.76;30.45;94445.31;4954378;28;8793;-62
2023/06/28 08:31:07;;;;;;;;;;;;;;;29.71;31.23;94446.91;4918193;29;7239;-62
2023/06/28 08:34:09;;;;;;;;;;;;;;;29.71;30.76;94440.63;4919602;29;7186;-62
2023/06/28 08:36:45;;;;;;;;;;;;;;;29.70;31.06;94450.22;4867616;29;7280;-62
2023/06/28 08:39:14;;;;;;;;;;;;;;;29.67;30.64;94442.97;4930848;28;6998;-61
2023/06/28 08:41:52;;;;;;;;;;;;;;;29.67;31.19;94445.72;4914186;29;7059;-62
2023/06/28 08:44:27;;;;;;;;;;;;;;;29.68;31.32;94445.22;4919198;29;7385;-61
2023/06/28 08:46:55;;;;;;;;;;;;;;;29.70;31.10;94444.66;4932393;29;7286;-62
2023/06/28 08:49:24;;;;;;;;;;;;;;;29.71;30.72;94440.63;4933512;28;9120;-61
2023/06/28 08:51:54;;;;;;;;;;;;;;;29.72;30.68;94442.09;4933884;29;9339;-62
2023/06/28 08:54:32;;;;;;;;;;;;;;;29.65;31.09;94431.66;4933237;29;7263;-62
2023/06/28 08:57:56;;;;;;;;;;;;;;;29.72;31.37;94436.56;4933931;28;9045;-62
2023/06/28 09:00:33;;;;;;;;;;;;;;;29.72;30.93;94440.09;4932921;29;7084;-63
2023/06/28 09:03:01;;;;;;;;;;;;;;;29.70;31.74;94434.31;4917463;29;7312;-63
2023/06/28 09:05:53;;;;;;;;;;;;;;;29.72;31.71;94440.09;4969256;28;8788;-62
2023/06/28 09:08:22;;;;;;;;;;;;;;;29.71;30.97;94440.63;4971981;28;7599;-62
2023/06/28 09:10:48;;;;;;;;;;;;;;;29.70;30.42;94439.88;4986463;28;7229;-63
2023/06/28 09:13:23;;;;;;;;;;;;;;;29.70;31.18;94444.66;5047984;28;6994;-63
2023/06/28 09:16:11;;;;;;;;;;;;;;;29.71;30.41;94441.34;5066893;28;7471;-63
2023/06/28 09:18:39;;;;;;;;;;;;;;;29.70;30.91;94447.44;5050018;28;8730;-62
2023/06/28 09:21:07;;;;;;;;;;;;;;;29.69;31.18;94443.16;5066316;28;7005;-62
2023/06/28 09:23:34;;;;;;;;;;;;;;;29.68;30.93;94441.69;5050464;28;9231;-62
2023/06/28 09:26:00;;;;;;;;;;;;;;;29.70;31.17;94439.88;5049342;28;7245;-62
2023/06/28 09:28:34;;;;;;;;;;;;;;;29.66;30.94;94438.72;5045328;28;9540;-62
2023/06/28 09:31:06;;;;;;;;;;;;;;;29.67;31.25;94440.94;5050697;28;7164;-62
2023/06/28 09:33:38;;;;;;;;;;;;;;;29.64;30.79;94436.47;5066546;28;8764;-62
2023/06/28 09:36:14;;;;;;;;;;;;;;;29.67;31.65;94445.72;5049514;28;7030;-62
2023/06/28 09:38:55;;;;;;;;;;;;;;;29.68;31.11;94433.38;5065910;28;7281;-62
2023/06/28 09:41:50;;;;;;;;;;;;;;;29.73;31.06;94441.56;5046169;28;8366;-62
2023/06/28 09:44:54;;;;;;;;;;;;;;;29.74;31.47;94440.31;4988715;28;7199;-62
2023/06/28 09:47:31;;;;;;;;;;;;;;;29.73;31.13;94433.25;4988460;28;7232;-62
2023/06/28 09:50:19;;;;;;;;;;;;;;;29.72;30.82;94425.47;4969641;28;7243;-62
2023/06/28 09:52:59;;;;;;;;;;;;;;;29.73;30.65;94432.50;4988564;28;9276;-62
2023/06/28 09:55:25;;;;;;;;;;;;;;;29.70;30.69;94422.50;4972237;28;7256;-62
2023/06/28 09:57:54;;;;;;;;;;;;;;;29.75;30.62;94424.44;4973367;28;7281;-61
2023/06/28 10:01:03;;;;;;;;;;;;;;;29.75;30.92;94421.66;4975395;28;8644;-62
2023/06/28 10:03:33;;;;;;;;;;;;;;;29.75;30.75;94416.13;4988988;28;8752;-62
2023/06/28 10:06:02;;;;;;;;;;;;;;;29.75;31.41;94418.88;4985517;28;9326;-63
2023/06/28 10:08:38;;;;;;;;;;;;;;;29.77;30.55;94421.88;4987173;28;7266;-62
2023/06/28 10:11:35;;;;;;;;;;;;;;;29.77;32.21;94417.06;4984474;28;6938;-62
2023/06/28 10:14:38;;;;;;;;;;;;;;;29.80;30.59;94418.00;4910634;29;8536;-61
2023/06/28 10:17:11;;;;;;;;;;;;;;;29.78;31.93;94417.78;4861739;29;8072;-62
2023/06/28 10:19:47;;;;;;;;;;;;;;;29.79;33.45;94422.06;4863065;29;8613;-61
2023/06/28 10:22:15;;;;;;;;;;;;;;;29.79;33.90;94413.75;4929981;29;8303;-61
2023/06/28 10:24:55;;;;;;;;;;;;;;;29.83;33.76;94414.16;4915584;29;9213;-61
2023/06/28 10:27:22;;;;;;;;;;;;;;;29.81;33.33;94405.63;4915431;29;7648;-61
2023/06/28 10:29:59;;;;;;;;;;;;;;;29.82;33.75;94415.44;4928811;29;7205;-61
2023/06/28 10:32:27;;;;;;;;;;;;;;;29.83;33.50;94419.72;4931246;29;7239;-62
2023/06/28 10:34:59;;;;;;;;;;;;;;;29.82;32.95;94412.66;4930741;29;9046;-61
2023/06/28 10:37:26;;;;;;;;;;;;;;;29.81;33.14;94416.72;4931933;29;7239;-61
2023/06/28 10:39:53;;;;;;;;;;;;;;;29.77;32.75;94416.31;4914172;29;7328;-61
2023/06/28 10:42:24;;;;;;;;;;;;;;;29.77;32.82;94417.06;4927793;29;7382;-62
2023/06/28 10:45:10;;;;;;;;;;;;;;;29.78;33.57;94412.25;4929811;29;7230;-63
2023/06/28 10:47:55;;;;;;;;;;;;;;;29.76;32.76;94410.03;4915873;29;7231;-61
2023/06/28 10:50:22;;;;;;;;;;;;;;;29.77;32.22;94414.31;4933001;28;7487;-62
2023/06/28 10:53:06;;;;;;;;;;;;;;;29.79;32.96;94406.19;5040624;28;8281;-62
2023/06/28 10:56:09;;;;;;;;;;;;;;;29.83;32.41;94403.06;5052202;28;7277;-62
2023/06/28 10:58:43;;;;;;;;;;;;;;;29.84;32.24;94404.53;5050256;28;7641;-62
2023/06/28 11:01:53;;;;;;;;;;;;;;;29.85;32.48;94410.84;5029219;28;7442;-63
2023/06/28 11:04:23;;;;;;;;;;;;;;;29.87;32.21;94413.81;5069250;28;7448;-62
2023/06/28 11:07:13;;;;;;;;;;;;;;;29.88;33.30;94412.53;5052724;28;8723;-61
2023/06/28 11:10:10;;;;;;;;;;;;;;;29.87;31.88;94417.34;5048062;28;7628;-61
2023/06/28 11:12:38;;;;;;;;;;;;;;;29.88;32.27;94410.53;5026593;28;7031;-62
2023/06/28 11:15:28;;;;;;;;;;;;;;;29.87;31.30;94409.03;5046330;28;7638;-61
2023/06/28 11:18:06;;;;;;;;;;;;;;;29.86;32.32;94413.09;5022298;28;9428;-61
2023/06/28 11:21:14;;;;;;;;;;;;;;;29.87;31.22;94409.03;5050583;28;7163;-61
2023/06/28 11:23:42;;;;;;;;;;;;;;;29.88;30.14;94415.31;4986972;28;9566;-62
2023/06/28 11:26:17;;;;;;;;;;;;;;;29.88;30.12;94416.06;4968856;28;7221;-62
2023/06/28 11:29:00;;;;;;;;;;;;;;;29.92;31.33;94410.94;4987361;28;7036;-62
2023/06/28 11:31:40;;;;;;;;;;;;;;;29.94;31.57;94407.63;4965231;28;7263;-63
2023/06/28 11:34:09;;;;;;;;;;;;;;;29.94;31.73;94402.06;4963730;28;7278;-63
2023/06/28 11:36:35;;;;;;;;;;;;;;;29.95;31.87;94401.50;4968257;28;8974;-62
2023/06/28 11:39:06;;;;;;;;;;;;;;;29.95;31.90;94398.75;4962661;28;7444;-62
2023/06/28 11:41:35;;;;;;;;;;;;;;;29.94;31.83;94399.28;4962184;28;6985;-62
2023/06/28 11:44:09;;;;;;;;;;;;;;;29.92;32.03;94393.53;4965565;28;7224;-63
2023/06/28 11:46:46;;;;;;;;;;;;;;;29.95;31.35;94384.88;4967832;28;7106;-64
2023/06/28 11:49:16;;;;;;;;;;;;;;;29.97;30.66;94398.22;4984908;28;6992;-63
2023/06/28 11:52:07;;;;;;;;;;;;;;;29.98;31.41;94396.91;4973743;28;7478;-63
2023/06/28 11:54:43;;;;;;;;;;;;;;;29.97;31.03;94395.44;4969710;28;7000;-63
2023/06/28 11:57:16;;;;;;;;;;;;;;;29.98;30.81;94397.66;5006928;28;7098;-63
2023/06/28 11:59:52;;;;;;;;;;;;;;;30.02;31.25;94397.31;5047630;28;7266;-63
2023/06/28 12:02:18;;;;;;;;;;;;;;;30.02;31.42;94398.06;5047291;28;9075;-63
2023/06/28 12:04:58;;;;;;;;;;;;;;;30.03;31.09;94388.47;5047446;28;7004;-63
2023/06/28 12:07:24;;;;;;;;;;;;;;;30.04;31.06;94389.97;5023608;28;7283;-64
2023/06/28 12:09:56;;;;;;;;;;;;;;;30.05;31.15;94394.22;5044824;28;7253;-63
2023/06/28 12:12:31;;;;;;;;;;;;;;;30.04;30.17;94389.97;5023705;28;9097;-63
2023/06/28 12:14:58;;;;;;;;;;;;;;;30.06;29.08;94386.66;5026649;28;7207;-63
2023/06/28 12:17:25;;;;;;;;;;;;;;;30.06;29.98;94390.16;5049099;28;9091;-63
2023/06/28 12:20:01;;;;;;;;;;;;;;;30.07;30.69;94390.91;5039347;28;7769;-63
2023/06/28 12:23:00;;;;;;;;;;;;;;;30.08;29.19;94384.81;5050107;28;7003;-63
2023/06/28 12:26:04;;;;;;;;;;;;;;;30.14;28.96;94388.22;4984447;28;7239;-63
2023/06/28 12:28:32;;;;;;;;;;;;;;;30.15;29.95;94389.69;4951355;28;7283;-63
2023/06/28 12:31:10;;;;;;;;;;;;;;;30.14;30.68;94384.69;4935510;28;7224;-64
2023/06/28 12:34:10;;;;;;;;;;;;;;;30.13;30.64;94381.16;4942920;28;8370;-63
2023/06/28 12:36:39;;;;;;;;;;;;;;;30.17;30.16;94373.25;4883964;29;9440;-63
2023/06/28 12:39:11;;;;;;;;;;;;;;;30.16;28.85;94379.34;4891392;29;7521;-63
2023/06/28 12:42:08;;;;;;;;;;;;;;;30.19;29.19;94376.22;4892228;29;7110;-63
2023/06/28 12:44:59;;;;;;;;;;;;;;;30.22;29.45;94368.84;4891499;29;6988;-64
2023/06/28 12:47:38;;;;;;;;;;;;;;;30.24;29.38;94366.28;4880553;29;8813;-63
2023/06/28 12:50:18;;;;;;;;;;;;;;;30.26;29.08;94366.47;4892850;29;7188;-64
2023/06/28 12:53:13;;;;;;;;;;;;;;;30.26;28.30;94369.25;4892047;29;7568;-63
2023/06/28 12:55:44;;;;;;;;;;;;;;;30.30;28.12;94366.88;4819735;29;7012;-64
2023/06/28 12:58:40;;;;;;;;;;;;;;;30.32;29.92;94367.84;4821069;29;7215;-64
2023/06/28 13:01:21;;;;;;;;;;;;;;;30.31;29.04;94358.06;4848331;29;7266;-63
2023/06/28 13:04:16;;;;;;;;;;;;;;;30.33;28.16;94361.03;4864226;29;7344;-63
2023/06/28 13:06:58;;;;;;;;;;;;;;;30.32;28.29;94359.53;4888623;29;7210;-63
2023/06/28 13:09:44;;;;;;;;;;;;;;;30.37;28.83;94360.69;4867694;29;7031;-64
2023/06/28 13:12:19;;;;;;;;;;;;;;;30.35;28.10;94352.91;4872568;29;7750;-63
2023/06/28 13:15:04;;;;;;;;;;;;;;;30.38;29.71;94362.19;4924570;29;7423;-63
2023/06/28 13:17:59;;;;;;;;;;;;;;;30.38;29.05;94356.63;4923227;29;7313;-64
2023/06/28 13:20:33;;;;;;;;;;;;;;;30.37;29.92;94355.13;4841277;29;6996;-62
2023/06/28 13:23:18;;;;;;;;;;;;;;;30.38;28.53;94351.78;4857357;29;9372;-63
2023/06/28 13:25:45;;;;;;;;;;;;;;;30.37;28.44;94346.81;4857206;29;8014;-63
2023/06/28 13:28:13;;;;;;;;;;;;;;;30.41;28.21;94344.41;4840035;29;7078;-62
2023/06/28 13:30:51;;;;;;;;;;;;;;;30.43;27.83;94341.84;4842860;29;9151;-62
2023/06/28 13:33:42;;;;;;;;;;;;;;;30.47;27.29;94342.25;4893146;29;7279;-62
2023/06/28 13:36:21;;;;;;;;;;;;;;;30.49;28.24;94343.19;4894568;29;7014;-63
2023/06/28 13:38:49;;;;;;;;;;;;;;;30.52;27.97;94336.56;4914916;29;7250;-62
2023/06/28 13:41:16;;;;;;;;;;;;;;;30.56;27.50;94343.81;4914253;29;7276;-62
2023/06/28 13:43:54;;;;;;;;;;;;;;;30.58;27.88;94344.00;4916025;29;7186;-61
2023/06/28 13:46:34;;;;;;;;;;;;;;;30.60;27.63;94350.50;4930409;29;7374;-61
2023/06/28 13:49:00;;;;;;;;;;;;;;;30.61;28.98;94346.41;4914614;29;7418;-61
2023/06/28 13:51:28;;;;;;;;;;;;;;;30.60;27.83;94333.09;4934308;29;8802;-62
2023/06/28 13:53:55;;;;;;;;;;;;;;;30.63;28.62;94343.09;4917189;29;7240;-61